createdAt,value
2023-06-19T00:00:25.163Z,53.61
2023-06-19T00:02:51.853Z,53.80
2023-06-19T00:05:18.359Z,54.10
2023-06-19T00:07:44.778Z,53.84
2023-06-19T00:10:11.152Z,53.41
2023-06-19T00:12:37.536Z,53.36
2023-06-19T00:15:04.171Z,53.98
2023-06-19T00:17:30.606Z,54.85
2023-06-19T00:19:57.018Z,55.02
2023-06-19T00:22:23.382Z,53.82
2023-06-19T00:24:49.772Z,53.12
2023-06-19T00:27:16.155Z,53.58
2023-06-19T00:29:42.547Z,52.90
2023-06-19T00:32:09.043Z,53.56
2023-06-19T00:34:35.421Z,54.25
2023-06-19T00:37:01.788Z,54.38
2023-06-19T00:39:28.137Z,55.54
2023-06-19T00:41:57.684Z,54.64
2023-06-19T00:44:24.138Z,54.38
2023-06-19T00:47:00.917Z,54.77
2023-06-19T00:49:29.531Z,54.79
2023-06-19T00:51:56.139Z,55.26
2023-06-19T00:54:22.620Z,54.77
2023-06-19T00:56:49.242Z,54.73
2023-06-19T00:59:20.338Z,54.65
2023-06-19T01:01:47.431Z,54.83
2023-06-19T01:04:14.643Z,54.41
2023-06-19T01:06:51.814Z,54.36
2023-06-19T01:09:19.640Z,53.70
2023-06-19T01:11:53.290Z,53.10
2023-06-19T01:14:26.476Z,53.03
2023-06-19T01:16:53.117Z,52.54
2023-06-19T01:19:21.167Z,52.50
2023-06-19T01:21:48.446Z,52.17
2023-06-19T01:24:15.195Z,52.45
2023-06-19T01:26:42.555Z,52.73
2023-06-19T01:29:09.421Z,52.60
2023-06-19T01:31:50.047Z,52.79
2023-06-19T01:34:18.335Z,52.69
2023-06-19T01:36:45.349Z,52.71
2023-06-19T01:39:13.113Z,53.50
2023-06-19T01:41:41.026Z,53.13
2023-06-19T01:44:08.892Z,53.12
2023-06-19T01:46:35.490Z,53.50
2023-06-19T01:49:01.977Z,53.89
2023-06-19T01:51:28.370Z,53.68
2023-06-19T01:53:54.744Z,54.05
2023-06-19T01:56:21.158Z,53.67
2023-06-19T01:58:47.513Z,53.43
2023-06-19T02:01:14.753Z,53.19
2023-06-19T02:03:41.274Z,52.81
2023-06-19T02:06:07.706Z,53.19
2023-06-19T02:08:34.051Z,53.18
2023-06-19T02:11:00.484Z,53.41
2023-06-19T02:13:26.850Z,53.71
2023-06-19T02:15:53.229Z,53.78
2023-06-19T02:18:19.656Z,53.56
2023-06-19T02:20:46.007Z,53.81
2023-06-19T02:23:12.377Z,53.90
2023-06-19T02:25:38.755Z,54.64
2023-06-19T02:28:05.144Z,54.08
2023-06-19T02:30:31.523Z,53.84
2023-06-19T02:32:57.994Z,53.87
2023-06-19T02:35:24.390Z,53.85
2023-06-19T02:37:50.754Z,53.94
2023-06-19T02:40:17.132Z,53.73
2023-06-19T02:42:43.517Z,54.16
2023-06-19T02:45:10.291Z,53.70
2023-06-19T02:47:37.054Z,54.95
2023-06-19T02:50:04.413Z,54.68
2023-06-19T02:52:31.366Z,54.62
2023-06-19T02:54:57.799Z,54.74
2023-06-19T02:57:24.178Z,55.06
2023-06-19T02:59:50.549Z,55.29
2023-06-19T03:02:17.085Z,55.03
2023-06-19T03:04:44.236Z,55.19
2023-06-19T03:07:10.645Z,55.60
2023-06-19T03:09:37.417Z,55.23
2023-06-19T03:12:04.093Z,54.84
2023-06-19T03:14:30.425Z,55.15
2023-06-19T03:16:56.827Z,54.42
2023-06-19T03:19:23.386Z,54.15
2023-06-19T03:21:49.756Z,54.15
2023-06-19T03:24:16.188Z,54.55
2023-06-19T03:26:42.612Z,54.53
2023-06-19T03:29:08.966Z,54.83
2023-06-19T03:31:35.320Z,55.60
2023-06-19T03:34:01.655Z,54.85
2023-06-19T03:36:28.016Z,56.50
2023-06-19T03:38:54.396Z,56.93
2023-06-19T03:41:20.824Z,57.22
2023-06-19T03:43:47.223Z,56.59
2023-06-19T03:46:13.650Z,56.66
2023-06-19T03:48:40.008Z,56.32
2023-06-19T03:51:06.352Z,56.64
2023-06-19T03:53:32.762Z,56.41
2023-06-19T03:55:59.116Z,57.20
2023-06-19T03:58:25.485Z,57.32
2023-06-19T04:00:52.445Z,57.14
2023-06-19T04:03:19.075Z,56.93
2023-06-19T04:05:45.499Z,57.03
2023-06-19T04:08:11.838Z,58.55
2023-06-19T04:10:38.205Z,58.19
2023-06-19T04:13:04.698Z,57.37
2023-06-19T04:15:31.052Z,56.73
2023-06-19T04:17:57.494Z,58.13
2023-06-19T04:20:24.133Z,57.61
2023-06-19T04:22:50.697Z,56.92
2023-06-19T04:25:17.094Z,57.74
2023-06-19T04:27:43.453Z,57.26
2023-06-19T04:30:10.193Z,56.95
2023-06-19T04:32:36.760Z,55.96
2023-06-19T04:35:03.513Z,55.43
2023-06-19T04:37:29.999Z,55.96
2023-06-19T04:39:56.357Z,56.04
2023-06-19T04:42:22.748Z,55.61
2023-06-19T04:44:49.326Z,55.66
2023-06-19T04:47:19.030Z,55.67
2023-06-19T04:49:45.509Z,56.91
2023-06-19T04:52:11.904Z,56.58
2023-06-19T04:54:38.483Z,56.70
2023-06-19T04:57:05.356Z,56.14
2023-06-19T04:59:31.863Z,56.82
2023-06-19T05:01:58.547Z,56.58
2023-06-19T05:04:25.307Z,57.38
2023-06-19T05:06:51.831Z,57.38
2023-06-19T05:09:18.313Z,57.01
2023-06-19T05:11:44.877Z,56.85
2023-06-19T05:14:11.219Z,57.11
2023-06-19T05:16:37.696Z,58.52
2023-06-19T05:19:04.319Z,58.77
2023-06-19T05:21:30.722Z,58.41
2023-06-19T05:23:57.150Z,58.58
2023-06-19T05:26:23.908Z,57.50
2023-06-19T05:28:50.746Z,58.81
2023-06-19T05:31:17.098Z,58.96
2023-06-19T05:33:43.465Z,57.98
2023-06-19T05:36:09.830Z,57.12
2023-06-19T05:38:36.259Z,56.06
2023-06-19T05:41:03.339Z,55.31
2023-06-19T05:43:29.816Z,55.38
2023-06-19T05:45:56.308Z,54.86
2023-06-19T05:48:22.868Z,54.61
2023-06-19T05:50:49.233Z,54.54
2023-06-19T05:53:15.962Z,55.42
2023-06-19T05:55:42.421Z,56.25
2023-06-19T05:58:09.374Z,56.45
2023-06-19T06:00:35.741Z,55.92
2023-06-19T06:03:02.150Z,55.84
2023-06-19T06:05:29.018Z,55.17
2023-06-19T06:07:56.277Z,55.26
2023-06-19T06:10:24.482Z,55.28
2023-06-19T06:12:51.008Z,55.33
2023-06-19T06:15:17.966Z,55.06
2023-06-19T06:17:44.678Z,55.24
2023-06-19T06:20:11.305Z,55.25
2023-06-19T06:22:37.772Z,56.41
2023-06-19T06:25:04.307Z,56.78
2023-06-19T06:27:30.855Z,57.39
2023-06-19T06:29:57.198Z,57.27
2023-06-19T06:32:23.583Z,56.73
2023-06-19T06:34:49.920Z,57.08
2023-06-19T06:37:16.301Z,56.49
2023-06-19T06:39:42.774Z,56.50
2023-06-19T06:42:09.210Z,56.93
2023-06-19T06:44:36.253Z,56.40
2023-06-19T06:47:02.710Z,56.53
2023-06-19T06:49:29.073Z,56.32
2023-06-19T06:51:57.652Z,56.63
2023-06-19T06:54:24.568Z,56.55
2023-06-19T06:56:50.939Z,56.47
2023-06-19T06:59:17.316Z,56.85
2023-06-19T07:01:43.661Z,56.03
2023-06-19T07:04:09.991Z,56.22
2023-06-19T07:06:36.351Z,55.65
2023-06-19T07:09:02.713Z,55.79
2023-06-19T07:11:29.057Z,56.40
2023-06-19T07:13:55.413Z,55.99
2023-06-19T07:16:21.776Z,56.15
2023-06-19T07:18:48.157Z,56.98
2023-06-19T07:21:15.757Z,57.36
2023-06-19T07:23:43.535Z,56.04
2023-06-19T07:26:10.523Z,55.59
2023-06-19T07:28:36.867Z,55.63
2023-06-19T07:31:04.087Z,54.61
2023-06-19T07:33:30.477Z,55.21
2023-06-19T07:35:57.520Z,53.70
2023-06-19T07:38:24.509Z,53.52
2023-06-19T07:40:50.880Z,53.85
2023-06-19T07:43:17.515Z,54.03
2023-06-19T07:45:44.096Z,53.83
2023-06-19T07:48:10.585Z,53.87
2023-06-19T07:50:37.053Z,53.65
2023-06-19T07:53:03.417Z,54.02
2023-06-19T07:55:29.782Z,54.28
2023-06-19T07:57:56.150Z,53.78
2023-06-19T08:00:22.761Z,53.46
2023-06-19T08:02:49.433Z,53.74
2023-06-19T08:05:15.975Z,53.86
2023-06-19T08:07:42.403Z,52.91
2023-06-19T08:10:13.988Z,53.24
2023-06-19T08:12:43.308Z,52.38
2023-06-19T08:15:10.420Z,53.09
2023-06-19T08:17:36.801Z,52.60
2023-06-19T08:20:03.628Z,52.53
2023-06-19T08:22:29.982Z,51.70
2023-06-19T08:24:56.328Z,51.50
2023-06-19T08:27:22.759Z,51.98
2023-06-19T08:29:49.129Z,53.38
2023-06-19T08:32:15.516Z,53.65
2023-06-19T08:34:41.861Z,52.21
2023-06-19T08:37:08.472Z,52.20
2023-06-19T08:39:35.308Z,52.38
2023-06-19T08:42:01.667Z,51.84
2023-06-19T08:44:28.091Z,50.94
2023-06-19T08:46:54.500Z,50.43
2023-06-19T08:49:20.949Z,51.03
2023-06-19T08:51:47.321Z,50.93
2023-06-19T08:54:13.683Z,51.32
2023-06-19T08:56:40.072Z,51.89
2023-06-19T08:59:13.691Z,51.09
2023-06-19T09:01:40.449Z,51.45
2023-06-19T09:04:14.603Z,51.89
2023-06-19T09:06:51.717Z,51.27
2023-06-19T09:09:19.850Z,50.88
2023-06-19T09:11:57.887Z,53.08
2023-06-19T09:14:41.305Z,53.66
2023-06-19T09:17:12.306Z,53.09
2023-06-19T09:19:39.406Z,53.58
2023-06-19T09:22:08.894Z,53.08
2023-06-19T09:24:42.425Z,52.62
2023-06-19T09:27:17.169Z,52.56
2023-06-19T09:29:45.236Z,52.14
2023-06-19T09:32:22.739Z,52.67
2023-06-19T09:34:51.125Z,51.37
2023-06-19T09:37:23.375Z,51.36
2023-06-19T09:39:54.860Z,51.00
2023-06-19T09:42:28.508Z,50.77
2023-06-19T09:45:01.256Z,51.10
2023-06-19T09:47:32.093Z,50.79
2023-06-19T09:49:59.857Z,50.27
2023-06-19T09:52:26.306Z,50.89
2023-06-19T09:54:54.551Z,50.27
2023-06-19T09:57:21.660Z,51.28
2023-06-19T09:59:56.538Z,50.96
2023-06-19T10:02:23.828Z,51.21
2023-06-19T10:04:55.100Z,51.66
2023-06-19T10:07:26.795Z,51.04
2023-06-19T10:09:58.062Z,50.18
2023-06-19T10:14:52.165Z,50.86
2023-06-19T10:17:18.544Z,50.11
2023-06-19T10:19:51.932Z,49.92
2023-06-19T10:22:21.699Z,50.83
2023-06-19T10:24:51.620Z,50.44
2023-06-19T10:27:26.136Z,49.72
2023-06-19T10:30:16.000Z,50.64
2023-06-19T10:32:42.299Z,51.24
2023-06-19T10:35:12.835Z,50.22
2023-06-19T10:37:39.310Z,50.05
2023-06-19T10:40:06.475Z,51.29
2023-06-19T10:42:32.829Z,51.98
2023-06-19T10:45:07.334Z,51.89
2023-06-19T10:47:34.302Z,49.97
2023-06-19T10:50:00.883Z,49.11
2023-06-19T10:52:30.061Z,49.61
2023-06-19T10:54:57.348Z,49.87
2023-06-19T10:57:30.968Z,49.34
2023-06-19T10:59:58.323Z,50.34
2023-06-19T11:02:25.245Z,49.58
2023-06-19T11:04:55.951Z,49.40
2023-06-19T11:07:25.389Z,49.70
2023-06-19T11:09:51.735Z,50.19
2023-06-19T11:12:21.842Z,50.61
2023-06-19T11:14:51.831Z,49.30
2023-06-19T11:17:18.603Z,48.98
2023-06-19T11:19:45.113Z,48.73
2023-06-19T11:22:12.213Z,48.46
2023-06-19T11:24:44.594Z,48.33
2023-06-19T11:27:18.676Z,48.85
2023-06-19T11:29:45.400Z,48.08
2023-06-19T11:32:15.962Z,48.57
2023-06-19T11:34:42.563Z,49.01
2023-06-19T11:37:16.640Z,49.12
2023-06-19T11:39:47.041Z,49.26
2023-06-19T11:42:13.422Z,48.31
2023-06-19T11:45:02.340Z,47.53
2023-06-19T11:47:31.393Z,47.62
2023-06-19T11:49:57.815Z,48.18
2023-06-19T11:52:24.252Z,46.98
2023-06-19T11:54:50.811Z,46.57
2023-06-19T11:57:17.177Z,46.14
2023-06-19T11:59:43.719Z,46.27
2023-06-19T12:02:10.656Z,46.28
2023-06-19T12:04:37.387Z,45.12
2023-06-19T12:07:04.043Z,44.56
2023-06-19T12:09:30.860Z,46.13
2023-06-19T12:11:57.208Z,46.56
2023-06-19T12:14:23.551Z,46.54
2023-06-19T12:16:49.943Z,45.53
2023-06-19T12:19:20.608Z,46.76
2023-06-19T12:21:47.455Z,46.30
2023-06-19T12:24:13.983Z,50.18
2023-06-19T12:26:40.454Z,46.50
2023-06-19T12:29:08.063Z,46.56
2023-06-19T12:31:35.559Z,46.61
2023-06-19T12:34:07.921Z,47.16
2023-06-19T12:36:40.322Z,47.84
2023-06-19T12:39:06.710Z,47.65
2023-06-19T12:41:33.049Z,48.00
2023-06-19T12:43:59.420Z,47.76
2023-06-19T12:46:25.818Z,46.98
2023-06-19T12:48:52.223Z,46.19
2023-06-19T12:51:18.980Z,46.10
2023-06-19T12:53:45.556Z,46.38
2023-06-19T12:56:14.101Z,45.65
2023-06-19T12:58:40.807Z,46.33
2023-06-19T13:01:07.285Z,46.22
2023-06-19T13:03:33.760Z,46.47
2023-06-19T13:06:00.219Z,46.95
2023-06-19T13:08:26.611Z,44.96
2023-06-19T13:10:52.992Z,44.01
2023-06-19T13:13:19.366Z,45.17
2023-06-19T13:15:46.897Z,43.64
2023-06-19T13:18:13.474Z,45.23
2023-06-19T13:20:39.896Z,45.92
2023-06-19T13:23:06.231Z,44.84
2023-06-19T13:25:32.608Z,46.36
2023-06-19T13:27:59.014Z,43.72
2023-06-19T13:30:25.560Z,43.23
2023-06-19T13:32:52.071Z,44.78
2023-06-19T13:35:18.539Z,43.56
2023-06-19T13:37:44.915Z,42.60
2023-06-19T13:40:11.428Z,43.63
2023-06-19T13:42:37.798Z,43.87
2023-06-19T13:45:04.492Z,42.52
2023-06-19T13:47:31.097Z,43.30
2023-06-19T13:49:57.709Z,42.83
2023-06-19T13:52:24.117Z,43.05
2023-06-19T13:54:50.812Z,46.00
2023-06-19T13:57:18.250Z,44.15
2023-06-19T13:59:44.605Z,44.20
2023-06-19T14:02:11.039Z,46.07
2023-06-19T14:04:37.423Z,45.67
2023-06-19T14:07:03.982Z,44.14
2023-06-19T14:09:30.347Z,43.18
2023-06-19T14:11:56.723Z,42.36
2023-06-19T14:14:23.129Z,43.10
2023-06-19T14:16:49.616Z,42.31
2023-06-19T14:19:16.118Z,43.51
2023-06-19T14:21:42.483Z,43.09
2023-06-19T14:24:08.881Z,44.40
2023-06-19T14:26:35.266Z,45.72
2023-06-19T14:29:01.603Z,44.87
2023-06-19T14:31:27.958Z,44.95
2023-06-19T14:33:54.826Z,45.27
2023-06-19T14:36:21.200Z,46.17
2023-06-19T14:38:47.534Z,46.55
2023-06-19T14:41:13.897Z,45.74
2023-06-19T14:43:40.277Z,46.12
2023-06-19T14:46:06.657Z,45.23
2023-06-19T14:48:33.000Z,44.50
2023-06-19T14:50:59.570Z,43.82
2023-06-19T14:53:25.957Z,44.16
2023-06-19T14:55:52.309Z,45.54
2023-06-19T14:58:18.674Z,46.11
2023-06-19T15:00:45.326Z,46.17
2023-06-19T15:03:11.738Z,44.98
2023-06-19T15:05:38.143Z,45.61
2023-06-19T15:08:04.536Z,45.27
2023-06-19T15:10:30.962Z,44.91
2023-06-19T15:12:57.292Z,45.33
2023-06-19T15:15:23.681Z,44.83
2023-06-19T15:17:50.069Z,45.40
2023-06-19T15:20:16.482Z,47.10
2023-06-19T15:22:43.156Z,45.25
2023-06-19T15:25:09.747Z,45.81
2023-06-19T15:27:36.180Z,45.32
2023-06-19T15:30:02.617Z,44.60
2023-06-19T15:32:28.988Z,44.84
2023-06-19T15:34:55.367Z,43.29
2023-06-19T15:37:21.735Z,44.27
2023-06-19T15:39:48.189Z,43.58
2023-06-19T15:42:14.620Z,44.07
2023-06-19T15:44:40.976Z,44.22
2023-06-19T15:47:07.595Z,44.71
2023-06-19T15:49:33.991Z,43.75
2023-06-19T15:52:00.351Z,43.66
2023-06-19T15:54:26.694Z,44.58
2023-06-19T15:56:53.038Z,45.08
2023-06-19T15:59:19.398Z,43.75
2023-06-19T16:01:45.775Z,44.89
2023-06-19T16:04:12.522Z,46.03
2023-06-19T16:06:38.919Z,45.65
2023-06-19T16:09:05.268Z,44.62
2023-06-19T16:11:31.620Z,44.23
2023-06-19T16:13:57.998Z,44.12
2023-06-19T16:16:24.392Z,43.61
2023-06-19T16:18:50.793Z,42.94
2023-06-19T16:21:17.323Z,42.84
2023-06-19T16:23:43.692Z,43.92
2023-06-19T16:26:10.056Z,44.35
2023-06-19T16:28:36.428Z,43.98
2023-06-19T16:31:02.879Z,43.62
2023-06-19T16:33:29.287Z,44.00
2023-06-19T16:35:58.300Z,44.78
2023-06-19T16:38:24.669Z,44.44
2023-06-19T16:40:51.002Z,44.64
2023-06-19T16:43:17.356Z,45.63
2023-06-19T16:45:43.721Z,46.65
2023-06-19T16:48:10.218Z,47.02
2023-06-19T16:50:36.590Z,45.84
2023-06-19T16:53:02.970Z,45.93
2023-06-19T16:55:29.938Z,45.55
2023-06-19T16:57:56.306Z,44.83
2023-06-19T17:00:23.130Z,44.68
2023-06-19T17:02:49.865Z,45.03
2023-06-19T17:05:16.410Z,45.11
2023-06-19T17:07:42.772Z,43.43
2023-06-19T17:10:10.015Z,44.72
2023-06-19T17:12:36.391Z,44.35
2023-06-19T17:15:02.763Z,44.08
2023-06-19T17:17:29.200Z,44.73
2023-06-19T17:19:55.639Z,44.63
2023-06-19T17:22:22.001Z,45.00
2023-06-19T17:24:48.464Z,45.86
2023-06-19T17:27:14.963Z,46.73
2023-06-19T17:29:41.318Z,46.26
2023-06-19T17:32:07.918Z,46.99
2023-06-19T17:34:34.276Z,46.42
2023-06-19T17:37:00.648Z,45.94
2023-06-19T17:39:28.869Z,45.60
2023-06-19T17:41:55.304Z,44.83
2023-06-19T17:44:21.676Z,46.21
2023-06-19T17:46:48.123Z,45.97
2023-06-19T17:49:14.601Z,44.80
2023-06-19T17:51:40.942Z,44.68
2023-06-19T17:54:07.282Z,45.63
2023-06-19T17:56:33.656Z,46.05
2023-06-19T17:59:00.071Z,46.67
2023-06-19T18:01:26.483Z,46.41
2023-06-19T18:03:53.308Z,46.65
2023-06-19T18:06:20.334Z,46.90
2023-06-19T18:08:46.781Z,47.13
2023-06-19T18:11:13.299Z,47.64
2023-06-19T18:13:39.656Z,47.83
2023-06-19T18:16:11.227Z,48.36
2023-06-19T18:18:39.601Z,48.23
2023-06-19T18:21:05.961Z,47.54
2023-06-19T18:23:32.313Z,47.77
2023-06-19T18:25:58.709Z,48.35
2023-06-19T18:28:25.073Z,48.05
2023-06-19T18:30:51.430Z,47.67
2023-06-19T18:33:17.796Z,47.67
2023-06-19T18:35:44.159Z,48.45
2023-06-19T18:38:10.502Z,48.84
2023-06-19T18:40:36.898Z,49.46
2023-06-19T18:43:03.293Z,49.58
2023-06-19T18:45:29.640Z,50.14
2023-06-19T18:47:56.007Z,49.98
2023-06-19T18:50:22.445Z,50.56
2023-06-19T18:52:48.909Z,51.29
2023-06-19T18:55:15.360Z,51.76
2023-06-19T18:57:41.734Z,51.82
2023-06-19T19:00:08.456Z,52.59
2023-06-19T19:02:34.880Z,53.30
2023-06-19T19:05:01.258Z,53.66
2023-06-19T19:07:27.610Z,53.26
2023-06-19T19:09:53.955Z,51.80
2023-06-19T19:12:20.310Z,52.95
2023-06-19T19:14:46.659Z,51.99
2023-06-19T19:17:12.996Z,52.77
2023-06-19T19:19:39.349Z,52.83
2023-06-19T19:22:06.124Z,53.79
2023-06-19T19:24:32.516Z,54.49
2023-06-19T19:26:58.948Z,55.29
2023-06-19T19:29:25.317Z,55.30
2023-06-19T19:31:51.697Z,55.84
2023-06-19T19:34:19.934Z,56.74
2023-06-19T19:36:47.582Z,57.21
2023-06-19T19:39:14.382Z,56.92
2023-06-19T19:41:40.760Z,58.05
2023-06-19T19:44:07.098Z,58.70
2023-06-19T19:46:33.686Z,59.32
2023-06-19T19:49:00.117Z,59.86
2023-06-19T19:51:26.948Z,60.57
2023-06-19T19:53:53.293Z,61.08
2023-06-19T19:56:19.685Z,61.41
2023-06-19T19:58:46.092Z,61.69
2023-06-19T20:01:12.513Z,62.49
2023-06-19T20:03:38.998Z,62.28
2023-06-19T20:06:05.519Z,63.04
2023-06-19T20:08:31.885Z,62.68
2023-06-19T20:10:58.257Z,62.42
2023-06-19T20:13:24.724Z,61.84
2023-06-19T20:15:51.105Z,62.33
2023-06-19T20:18:17.520Z,63.12
2023-06-19T20:20:44.047Z,64.05
2023-06-19T20:23:10.413Z,64.12
2023-06-19T20:25:36.769Z,64.13
2023-06-19T20:28:08.676Z,63.75
2023-06-19T20:30:35.488Z,63.25
2023-06-19T20:33:01.866Z,61.82
2023-06-19T20:35:28.232Z,61.60
2023-06-19T20:37:54.609Z,62.45
2023-06-19T20:40:21.129Z,62.68
2023-06-19T20:42:47.507Z,63.14
2023-06-19T20:45:13.864Z,63.28
2023-06-19T20:47:40.257Z,64.12
2023-06-19T20:50:07.536Z,64.93
2023-06-19T20:52:33.940Z,65.56
2023-06-19T20:55:00.323Z,66.35
2023-06-19T20:57:26.674Z,66.54
2023-06-19T20:59:53.028Z,66.74
2023-06-19T21:02:19.461Z,66.74
2023-06-19T21:04:45.909Z,67.08
2023-06-19T21:07:12.264Z,66.69
2023-06-19T21:09:38.629Z,67.02
2023-06-19T21:12:05.404Z,67.66
2023-06-19T21:14:31.787Z,67.43
2023-06-19T21:16:58.252Z,67.42
2023-06-19T21:19:24.866Z,67.53
2023-06-19T21:21:51.213Z,67.91
2023-06-19T21:24:17.599Z,67.90
2023-06-19T21:26:44.029Z,67.87
2023-06-19T21:29:10.393Z,68.23
2023-06-19T21:31:36.752Z,68.41
2023-06-19T21:34:03.088Z,68.78
2023-06-19T21:36:29.471Z,69.25
2023-06-19T21:38:55.806Z,69.66
2023-06-19T21:41:22.211Z,69.90
2023-06-19T21:43:48.579Z,70.25
2023-06-19T21:46:15.051Z,70.69
2023-06-19T21:48:41.424Z,71.34
2023-06-19T21:51:07.820Z,72.19
2023-06-19T21:53:34.248Z,72.44
2023-06-19T21:56:00.607Z,73.10
2023-06-19T21:58:26.965Z,74.03
2023-06-19T22:00:53.326Z,75.16
2023-06-19T22:03:19.824Z,75.98
2023-06-19T22:05:46.315Z,76.07
2023-06-19T22:08:12.704Z,76.28
2023-06-19T22:10:39.067Z,75.88
2023-06-19T22:13:05.569Z,75.42
2023-06-19T22:15:31.916Z,75.44
2023-06-19T22:17:58.282Z,75.86
2023-06-19T22:20:24.862Z,76.28
2023-06-19T22:22:51.451Z,76.70
2023-06-19T22:25:17.876Z,76.73
2023-06-19T22:27:44.876Z,76.82
2023-06-19T22:30:15.862Z,77.06
2023-06-19T22:32:43.019Z,77.16
2023-06-19T22:35:09.483Z,77.39
2023-06-19T22:37:36.563Z,76.31
2023-06-19T22:40:03.453Z,75.91
2023-06-19T22:42:29.810Z,76.09
2023-06-19T22:44:56.187Z,75.87
2023-06-19T22:47:22.628Z,75.95
2023-06-19T22:49:49.122Z,75.98
2023-06-19T22:52:15.512Z,76.17
2023-06-19T22:54:41.866Z,76.39
2023-06-19T22:57:08.228Z,76.82
2023-06-19T22:59:34.584Z,76.85
2023-06-19T23:02:00.944Z,76.40
2023-06-19T23:04:27.288Z,76.28
2023-06-19T23:06:53.661Z,76.84
2023-06-19T23:09:20.005Z,77.90
2023-06-19T23:11:46.356Z,78.10
2023-06-19T23:14:12.701Z,77.67
2023-06-19T23:16:39.067Z,76.48
2023-06-19T23:19:05.411Z,75.52
2023-06-19T23:21:31.836Z,72.57
2023-06-19T23:23:59.307Z,70.15
2023-06-19T23:26:26.008Z,69.33
2023-06-19T23:28:53.357Z,68.71
2023-06-19T23:31:20.659Z,68.66
2023-06-19T23:33:47.015Z,68.24
2023-06-19T23:36:13.387Z,67.99
2023-06-19T23:38:39.726Z,67.80
2023-06-19T23:41:06.075Z,67.80
2023-06-19T23:43:32.418Z,67.93
2023-06-19T23:45:58.814Z,68.31
2023-06-19T23:48:25.284Z,68.33
2023-06-19T23:50:51.643Z,68.47
2023-06-19T23:53:17.999Z,68.41
2023-06-19T23:55:44.365Z,68.43
2023-06-19T23:58:10.713Z,68.21
